Time;durP1;ratioP1;P1;durP2;ratioP2;P2;SDS_P1;SDS_P2;PMS_P1;PMS_P2;Temp;Humidity;BMP_temperature;BMP_pressure;BME280_temperature;BME280_humidity;BME280_pressure;Samples;Min_cycle;Max_cycle;Signal;HPM_P1;HPM_P2
2022/07/09 00:01:32;;;;;;;;;;;;;;;15.47;100.00;90865.97;5014753;28;19920;-70
2022/07/09 00:03:58;;;;;;;;;;;;;;;15.42;100.00;90872.31;5014981;28;19968;-70
2022/07/09 00:06:23;;;;;;;;;;;;;;;15.50;100.00;90871.44;5014793;28;19920;-70
2022/07/09 00:08:49;;;;;;;;;;;;;;;15.58;100.00;90856.31;5014920;28;20443;-70
2022/07/09 00:11:14;;;;;;;;;;;;;;;15.58;100.00;90862.44;5014880;28;19933;-70
2022/07/09 00:13:39;;;;;;;;;;;;;;;15.57;100.00;90860.13;5014664;28;20307;-70
2022/07/09 00:16:05;;;;;;;;;;;;;;;15.42;100.00;90861.59;5014765;28;20019;-70
2022/07/09 00:18:30;;;;;;;;;;;;;;;15.49;100.00;90863.72;5014573;28;20371;-70
2022/07/09 00:20:55;;;;;;;;;;;;;;;15.54;100.00;90856.22;5014566;28;20359;-70
2022/07/09 00:23:21;;;;;;;;;;;;;;;15.55;100.00;90849.72;5014645;28;19913;-70
2022/07/09 00:25:46;;;;;;;;;;;;;;;15.60;100.00;90847.94;5014788;28;19975;-70
2022/07/09 00:28:12;;;;;;;;;;;;;;;15.58;100.00;90838.31;5014389;28;20351;-70
2022/07/09 00:30:37;;;;;;;;;;;;;;;15.59;100.00;90836.44;5014452;28;19914;-70
2022/07/09 00:33:02;;;;;;;;;;;;;;;15.68;100.00;90839.78;5014398;28;19913;-70
2022/07/09 00:35:28;;;;;;;;;;;;;;;15.65;100.00;90828.97;5014477;28;20451;-70
2022/07/09 00:37:53;;;;;;;;;;;;;;;15.62;100.00;90833.09;5014360;28;20399;-70
2022/07/09 00:40:19;;;;;;;;;;;;;;;15.62;100.00;90827.75;5014184;28;19925;-70
2022/07/09 00:42:44;;;;;;;;;;;;;;;15.62;100.00;90829.63;5014276;28;21099;-70
2022/07/09 00:45:09;;;;;;;;;;;;;;;15.64;100.00;90828.19;5014021;28;19914;-70
2022/07/09 00:47:35;;;;;;;;;;;;;;;15.65;100.00;90826.28;5014036;28;20403;-70
2022/07/09 00:50:00;;;;;;;;;;;;;;;15.55;100.00;90816.78;5013879;28;19914;-70
2022/07/09 00:52:26;;;;;;;;;;;;;;;15.59;100.00;90815.00;5014031;28;19913;-71
2022/07/09 00:54:52;;;;;;;;;;;;;;;15.63;100.00;90820.47;5013993;28;19913;-70
2022/07/09 00:57:19;;;;;;;;;;;;;;;15.58;100.00;90816.09;5013924;28;20347;-70
2022/07/09 00:59:45;;;;;;;;;;;;;;;15.61;100.00;90818.09;5014116;28;19968;-69
2022/07/09 01:02:10;;;;;;;;;;;;;;;15.59;100.00;90815.00;5013809;28;19913;-69
2022/07/09 01:04:36;;;;;;;;;;;;;;;15.48;100.00;90819.28;5013787;28;19913;-69
2022/07/09 01:07:02;;;;;;;;;;;;;;;15.35;100.00;90812.38;5013639;28;19952;-70
2022/07/09 01:09:28;;;;;;;;;;;;;;;15.31;100.00;90809.59;5013758;28;20446;-70
2022/07/09 01:11:53;;;;;;;;;;;;;;;15.28;100.00;90808.34;5012493;28;19913;-70
2022/07/09 01:14:19;;;;;;;;;;;;;;;15.30;100.00;90808.03;5013736;28;19922;-70
2022/07/09 01:16:44;;;;;;;;;;;;;;;15.36;100.00;90808.59;5013509;28;19920;-70
2022/07/09 01:19:09;;;;;;;;;;;;;;;15.35;100.00;90799.75;5013552;28;19920;-70
2022/07/09 01:21:35;;;;;;;;;;;;;;;15.37;100.00;90807.47;5013492;28;19920;-70
2022/07/09 01:24:00;;;;;;;;;;;;;;;15.38;100.00;90803.66;5013308;28;19913;-70
2022/07/09 01:26:26;;;;;;;;;;;;;;;15.39;100.00;90800.63;5013200;28;20307;-71
2022/07/09 01:28:52;;;;;;;;;;;;;;;15.39;100.00;90805.22;5013337;28;19920;-71
2022/07/09 01:31:17;;;;;;;;;;;;;;;15.41;100.00;90803.75;5013328;28;19920;-71
2022/07/09 01:33:43;;;;;;;;;;;;;;;15.41;100.00;90802.97;5013196;28;19921;-71
2022/07/09 01:36:08;;;;;;;;;;;;;;;15.46;100.00;90802.72;5013276;28;20466;-71
2022/07/09 01:38:33;;;;;;;;;;;;;;;15.51;100.00;90802.50;5012896;28;20031;-71
2022/07/09 01:40:59;;;;;;;;;;;;;;;15.60;100.00;90805.03;5013136;28;20399;-71
2022/07/09 01:43:25;;;;;;;;;;;;;;;15.55;100.00;90804.16;5013110;28;20280;-71
2022/07/09 01:45:50;;;;;;;;;;;;;;;15.60;100.00;90799.69;5013009;28;19920;-72
2022/07/09 01:48:15;;;;;;;;;;;;;;;15.57;100.00;90801.13;5012837;28;19976;-71
2022/07/09 01:50:41;;;;;;;;;;;;;;;15.53;100.00;90806.38;5012883;28;19948;-71
2022/07/09 01:53:06;;;;;;;;;;;;;;;15.49;100.00;90802.06;5012911;28;19917;-71
2022/07/09 01:55:31;;;;;;;;;;;;;;;15.42;100.00;90799.16;5012870;28;19913;-71
2022/07/09 01:57:57;;;;;;;;;;;;;;;15.44;100.00;90797.69;5012682;28;19913;-71
2022/07/09 02:00:23;;;;;;;;;;;;;;;15.51;100.00;90808.63;5012637;28;19920;-71
2022/07/09 02:02:48;;;;;;;;;;;;;;;15.47;100.00;90794.38;5012673;28;19920;-71
2022/07/09 02:05:14;;;;;;;;;;;;;;;15.42;100.00;90793.81;5012686;28;19917;-71
2022/07/09 02:07:39;;;;;;;;;;;;;;;15.39;100.00;90799.84;5012562;28;19999;-72
2022/07/09 02:10:05;;;;;;;;;;;;;;;15.39;100.00;90797.94;5012663;28;20382;-71
2022/07/09 02:12:30;;;;;;;;;;;;;;;15.37;100.00;90800.19;5012541;28;20033;-72
2022/07/09 02:14:56;;;;;;;;;;;;;;;15.45;100.00;90811.88;5170187;23;20286;-69
2022/07/09 02:17:21;;;;;;;;;;;;;;;15.50;100.00;90811.66;5032409;28;20279;-67
2022/07/09 02:19:46;;;;;;;;;;;;;;;15.45;100.00;90807.31;5032493;28;19928;-67
2022/07/09 02:22:12;;;;;;;;;;;;;;;15.47;100.00;90812.34;5032251;28;19913;-67
2022/07/09 02:24:37;;;;;;;;;;;;;;;15.48;100.00;90803.19;5032136;28;19917;-68
2022/07/09 02:27:05;;;;;;;;;;;;;;;15.45;100.00;90809.19;5032478;28;19992;-67
2022/07/09 02:29:33;;;;;;;;;;;;;;;15.43;100.00;90811.44;5032288;28;19920;-67
2022/07/09 02:31:58;;;;;;;;;;;;;;;15.42;100.00;90812.56;5032295;28;20374;-67
2022/07/09 02:34:24;;;;;;;;;;;;;;;15.45;100.00;90806.53;5032362;28;19924;-69
2022/07/09 02:36:50;;;;;;;;;;;;;;;15.42;100.00;90816.03;5014438;28;20058;-67
2022/07/09 02:39:15;;;;;;;;;;;;;;;15.50;100.00;90806.31;5032154;28;19913;-67
2022/07/09 02:41:40;;;;;;;;;;;;;;;15.46;100.00;90813.44;5032117;28;20000;-67
2022/07/09 02:44:06;;;;;;;;;;;;;;;15.44;100.00;90819.16;5032004;28;20417;-67
2022/07/09 02:46:31;;;;;;;;;;;;;;;15.45;100.00;90815.34;5031950;28;19948;-68
2022/07/09 02:48:56;;;;;;;;;;;;;;;15.44;100.00;90819.16;5032036;28;19913;-67
2022/07/09 02:51:21;;;;;;;;;;;;;;;15.41;100.00;90817.16;5032009;28;19909;-67
2022/07/09 02:53:47;;;;;;;;;;;;;;;15.41;100.00;90811.78;5031947;28;19913;-67
2022/07/09 02:56:12;;;;;;;;;;;;;;;15.38;100.00;90817.06;5031919;28;19913;-67
2022/07/09 02:58:37;;;;;;;;;;;;;;;15.34;100.00;90816.97;5031907;28;19962;-67
2022/07/09 03:01:05;;;;;;;;;;;;;;;15.36;100.00;90821.97;5031798;28;19909;-67
2022/07/09 03:03:30;;;;;;;;;;;;;;;15.35;100.00;90820.41;5031762;28;20371;-67
2022/07/09 03:05:56;;;;;;;;;;;;;;;15.40;100.00;90817.50;5031836;28;19908;-67
2022/07/09 03:08:21;;;;;;;;;;;;;;;15.37;100.00;90821.63;5031716;28;20299;-68
2022/07/09 03:10:48;;;;;;;;;;;;;;;15.37;100.00;90821.63;5031818;28;19913;-67
2022/07/09 03:13:13;;;;;;;;;;;;;;;15.39;100.00;90818.63;5031458;28;20385;-68
2022/07/09 03:15:39;;;;;;;;;;;;;;;15.37;100.00;90821.63;5031591;28;19921;-68
2022/07/09 03:18:07;;;;;;;;;;;;;;;15.41;100.00;90825.19;5031666;28;20322;-67
2022/07/09 03:20:32;;;;;;;;;;;;;;;15.41;100.00;90822.50;5031959;28;20306;-68
2022/07/09 03:22:57;;;;;;;;;;;;;;;15.40;100.00;90825.53;5031538;28;19913;-67
2022/07/09 03:25:23;;;;;;;;;;;;;;;15.41;100.00;90819.06;5031916;28;19960;-68
2022/07/09 03:27:48;;;;;;;;;;;;;;;15.42;100.00;90821.38;5031553;28;20481;-69
2022/07/09 03:30:13;;;;;;;;;;;;;;;15.43;100.00;90822.16;5031562;28;19917;-69
2022/07/09 03:32:38;;;;;;;;;;;;;;;15.54;100.00;90812.53;5031536;28;19978;-68
2022/07/09 03:35:04;;;;;;;;;;;;;;;15.50;100.00;90814.34;5032675;28;19933;-68
2022/07/09 03:37:29;;;;;;;;;;;;;;;15.45;100.00;90819.94;5035423;28;19917;-68
2022/07/09 03:39:55;;;;;;;;;;;;;;;15.50;100.00;90817.81;5035532;28;19913;-68
2022/07/09 03:42:20;;;;;;;;;;;;;;;15.46;100.00;90824.16;5035270;28;19913;-68
2022/07/09 03:44:45;;;;;;;;;;;;;;;15.39;100.00;90823.97;5035306;28;20008;-68
2022/07/09 03:47:11;;;;;;;;;;;;;;;15.42;100.00;90825.97;5035231;28;19960;-68
2022/07/09 03:49:36;;;;;;;;;;;;;;;15.46;100.00;90824.16;5035365;28;19913;-68
2022/07/09 03:52:01;;;;;;;;;;;;;;;15.46;100.00;90826.84;5035323;28;19913;-68
2022/07/09 03:54:27;;;;;;;;;;;;;;;15.50;100.00;90827.75;5035208;28;19920;-68
2022/07/09 03:56:52;;;;;;;;;;;;;;;15.51;100.00;90823.94;5035179;28;19913;-68
2022/07/09 03:59:17;;;;;;;;;;;;;;;15.51;100.00;90827.41;5035193;28;19913;-69
2022/07/09 04:01:43;;;;;;;;;;;;;;;15.62;100.00;90827.75;5035108;28;20031;-69
2022/07/09 04:04:08;;;;;;;;;;;;;;;15.69;100.00;90827.94;5035001;28;19923;-68
2022/07/09 04:06:34;;;;;;;;;;;;;;;15.67;100.00;90827.50;5034988;28;19917;-68
2022/07/09 04:09:04;;;;;;;;;;;;;;;15.73;100.00;90826.13;5035006;28;20014;-68
2022/07/09 04:11:30;;;;;;;;;;;;;;;15.65;100.00;90831.63;5035002;28;20016;-69
2022/07/09 04:13:56;;;;;;;;;;;;;;;15.58;100.00;90829.50;5034684;28;19917;-69
2022/07/09 04:16:21;;;;;;;;;;;;;;;15.55;100.00;90836.31;5034851;28;19913;-69
2022/07/09 04:18:46;;;;;;;;;;;;;;;15.62;100.00;90838.47;5034857;28;19913;-69
2022/07/09 04:21:11;;;;;;;;;;;;;;;15.56;100.00;90843.25;5034573;28;20000;-69
2022/07/09 04:23:37;;;;;;;;;;;;;;;15.60;100.00;90838.00;5034891;28;19956;-69
2022/07/09 04:26:02;;;;;;;;;;;;;;;15.54;100.00;90837.44;5034658;28;20444;-68
2022/07/09 04:28:28;;;;;;;;;;;;;;;15.50;100.00;90855.34;5034452;28;19913;-68
2022/07/09 04:30:53;;;;;;;;;;;;;;;15.52;100.00;90846.94;5034570;28;20012;-68
2022/07/09 04:33:18;;;;;;;;;;;;;;;15.51;100.00;90853.44;5034315;28;19917;-69
2022/07/09 04:35:44;;;;;;;;;;;;;;;15.50;100.00;90857.25;5034506;28;20008;-68
2022/07/09 04:38:11;;;;;;;;;;;;;;;15.51;100.00;90853.44;5034483;28;19917;-68
2022/07/09 04:40:36;;;;;;;;;;;;;;;15.54;100.00;90842.81;5034460;28;19952;-68
2022/07/09 04:43:02;;;;;;;;;;;;;;;15.59;100.00;90855.22;5034140;28;20006;-69
2022/07/09 04:45:29;;;;;;;;;;;;;;;15.62;100.00;90849.19;5034096;28;20414;-69
2022/07/09 04:47:55;;;;;;;;;;;;;;;15.62;100.00;90849.19;5034205;28;19939;-69
2022/07/09 04:50:20;;;;;;;;;;;;;;;15.69;100.00;90854.75;5034230;28;19917;-69
2022/07/09 04:52:46;;;;;;;;;;;;;;;15.71;100.00;90849.03;5034067;28;19913;-69
2022/07/09 04:55:11;;;;;;;;;;;;;;;15.69;100.00;90849.38;5034085;28;19920;-69
2022/07/09 04:57:37;;;;;;;;;;;;;;;15.76;100.00;90846.88;5033950;28;20438;-68
2022/07/09 05:00:03;;;;;;;;;;;;;;;15.65;100.00;90839.69;5047969;28;19923;-68
2022/07/09 05:02:28;;;;;;;;;;;;;;;15.65;100.00;90843.16;5053888;28;19919;-68
2022/07/09 05:04:53;;;;;;;;;;;;;;;15.72;100.00;90842.56;5053434;28;20003;-68
2022/07/09 05:07:19;;;;;;;;;;;;;;;15.80;100.00;90852.38;5053654;28;19920;-68
2022/07/09 05:09:44;;;;;;;;;;;;;;;15.90;100.00;90846.50;5053630;28;19912;-68
2022/07/09 05:12:10;;;;;;;;;;;;;;;16.06;100.00;90851.91;5053656;28;19919;-68
2022/07/09 05:14:36;;;;;;;;;;;;;;;16.33;100.00;90856.44;5053176;28;19916;-68
2022/07/09 05:17:01;;;;;;;;;;;;;;;16.55;100.00;90854.28;5053472;28;19913;-68
2022/07/09 05:19:27;;;;;;;;;;;;;;;16.75;100.00;90859.44;5053340;28;20425;-70
2022/07/09 05:21:52;;;;;;;;;;;;;;;16.88;100.00;90852.06;5053435;28;19912;-69
2022/07/09 05:24:18;;;;;;;;;;;;;;;17.03;100.00;90843.19;5053296;28;19953;-67
2022/07/09 05:26:43;;;;;;;;;;;;;;;17.21;100.00;90848.22;5053258;28;19917;-69
2022/07/09 05:29:08;;;;;;;;;;;;;;;17.21;100.00;90851.69;5053405;28;19917;-68
2022/07/09 05:31:34;;;;;;;;;;;;;;;17.18;100.00;90849.66;5053371;28;20401;-70
2022/07/09 05:34:00;;;;;;;;;;;;;;;17.20;100.00;90850.13;5053111;28;19920;-68
2022/07/09 05:36:28;;;;;;;;;;;;;;;17.33;100.00;90848.84;5053401;28;20003;-69
2022/07/09 05:38:53;;;;;;;;;;;;;;;17.30;100.00;90851.47;5053134;28;19913;-69
2022/07/09 05:41:19;;;;;;;;;;;;;;;17.25;100.00;90857.13;5053070;28;19922;-69
2022/07/09 05:43:44;;;;;;;;;;;;;;;17.03;100.00;90855.84;5052981;28;19959;-70
2022/07/09 05:46:10;;;;;;;;;;;;;;;16.83;100.00;90865.75;5052916;28;20378;-69
2022/07/09 05:48:35;;;;;;;;;;;;;;;16.91;100.00;90862.13;5052950;28;19971;-70
2022/07/09 05:51:00;;;;;;;;;;;;;;;17.08;100.00;90860.19;5052822;28;19913;-69
2022/07/09 05:53:26;;;;;;;;;;;;;;;17.00;100.00;90859.25;5052821;28;19967;-70
2022/07/09 05:55:51;;;;;;;;;;;;;;;17.23;100.00;90856.72;5052823;28;19912;-69
2022/07/09 05:58:16;;;;;;;;;;;;;;;17.31;100.00;90861.88;5052089;28;19966;-69
2022/07/09 06:00:42;;;;;;;;;;;;;;;17.39;100.00;90849.38;5052614;28;19913;-69
2022/07/09 06:03:07;;;;;;;;;;;;;;;17.44;100.00;90851.78;5052547;28;20400;-69
2022/07/09 06:05:32;;;;;;;;;;;;;;;17.59;100.00;90850.97;5052677;28;19912;-69
2022/07/09 06:07:58;;;;;;;;;;;;;;;17.49;100.00;90856.09;5052653;28;19970;-69
2022/07/09 06:10:23;;;;;;;;;;;;;;;17.15;100.00;90849.59;5052622;28;20414;-69
2022/07/09 06:12:48;;;;;;;;;;;;;;;17.26;100.00;90850.63;5052452;28;19916;-69
2022/07/09 06:15:14;;;;;;;;;;;;;;;17.17;100.00;90856.19;5052405;28;19921;-69
2022/07/09 06:17:39;;;;;;;;;;;;;;;17.14;100.00;90848.81;5052550;28;19917;-69
2022/07/09 06:20:05;;;;;;;;;;;;;;;17.04;100.00;90850.16;5052483;28;19917;-68
2022/07/09 06:22:31;;;;;;;;;;;;;;;17.07;100.00;90854.03;5051936;28;19919;-69
2022/07/09 06:24:56;;;;;;;;;;;;;;;17.18;100.00;90844.28;5052291;28;19912;-69
2022/07/09 06:27:22;;;;;;;;;;;;;;;17.41;100.00;90852.50;5052257;28;19948;-70
2022/07/09 06:29:47;;;;;;;;;;;;;;;17.51;100.00;90857.31;5052293;28;19913;-69
2022/07/09 06:32:12;;;;;;;;;;;;;;;17.41;100.00;90852.50;5052274;28;19920;-69
2022/07/09 06:34:37;;;;;;;;;;;;;;;17.30;100.00;90846.88;5052107;28;19912;-69
2022/07/09 06:37:03;;;;;;;;;;;;;;;17.11;100.00;90849.53;5052058;28;19919;-68
2022/07/09 06:39:47;;;;;;;;;;;;;;;17.34;100.00;90842.34;5052110;28;19923;-68
2022/07/09 06:42:13;;;;;;;;;;;;;;;17.60;100.00;90852.50;5052074;28;19920;-68
2022/07/09 06:44:38;;;;;;;;;;;;;;;17.63;100.00;90853.72;5051896;28;19912;-68
2022/07/09 06:47:04;;;;;;;;;;;;;;;17.91;100.00;90857.00;5051794;28;19917;-69
2022/07/09 06:49:30;;;;;;;;;;;;;;;17.89;100.00;90853.13;5051851;28;19960;-69
2022/07/09 06:51:56;;;;;;;;;;;;;;;17.95;100.00;90849.78;5051808;28;19913;-69
2022/07/09 06:54:21;;;;;;;;;;;;;;;18.08;100.00;90852.34;5051754;28;19913;-69
2022/07/09 06:56:46;;;;;;;;;;;;;;;18.04;100.00;90857.66;5051894;28;19995;-68
2022/07/09 06:59:12;;;;;;;;;;;;;;;18.11;100.00;90849.69;5051752;28;19920;-68
2022/07/09 07:01:38;;;;;;;;;;;;;;;18.39;100.00;90856.75;5051696;28;19944;-70
2022/07/09 07:04:04;;;;;;;;;;;;;;;18.45;100.00;90850.69;5051557;28;19912;-68
2022/07/09 07:06:29;;;;;;;;;;;;;;;18.49;100.00;90856.94;5051612;28;19943;-70
2022/07/09 07:08:55;;;;;;;;;;;;;;;18.61;100.00;90852.50;5051646;28;20291;-69
2022/07/09 07:11:20;;;;;;;;;;;;;;;18.11;100.00;90849.69;5028992;28;19917;-70
2022/07/09 07:13:45;;;;;;;;;;;;;;;17.87;100.00;90848.09;5011217;28;19925;-70
2022/07/09 07:16:11;;;;;;;;;;;;;;;17.71;100.00;90860.06;4990844;28;19925;-69
2022/07/09 07:18:36;;;;;;;;;;;;;;;17.64;100.00;90861.44;5010596;28;19917;-70
2022/07/09 07:21:01;;;;;;;;;;;;;;;17.68;100.00;90853.47;5011700;28;19913;-70
2022/07/09 07:23:27;;;;;;;;;;;;;;;17.83;100.00;90855.34;5011584;28;20424;-69
2022/07/09 07:25:52;;;;;;;;;;;;;;;17.41;100.00;90855.19;5011292;28;20395;-69
2022/07/09 07:28:18;;;;;;;;;;;;;;;16.99;100.00;90852.31;5011548;28;20350;-71
2022/07/09 07:30:43;;;;;;;;;;;;;;;16.99;100.00;90853.09;5011583;28;20716;-68
2022/07/09 07:33:08;;;;;;;;;;;;;;;17.09;100.00;90859.06;5011283;28;19917;-67
2022/07/09 07:35:34;;;;;;;;;;;;;;;17.35;100.00;90853.88;5011771;28;19918;-71
2022/07/09 07:37:59;;;;;;;;;;;;;;;17.77;100.00;90869.41;5011618;28;19917;-69
2022/07/09 07:40:25;;;;;;;;;;;;;;;17.95;100.00;90854.38;5017932;28;20440;-68
2022/07/09 07:42:50;;;;;;;;;;;;;;;18.18;100.00;90857.94;5031064;28;19917;-67
2022/07/09 07:45:16;;;;;;;;;;;;;;;18.72;100.00;90862.38;5031066;28;19916;-67
2022/07/09 07:47:41;;;;;;;;;;;;;;;19.04;100.00;90860.19;5031105;28;20001;-68
2022/07/09 07:50:06;;;;;;;;;;;;;;;19.28;100.00;90855.56;5031141;28;20400;-67
2022/07/09 07:52:32;;;;;;;;;;;;;;;19.53;100.00;90850.50;5046284;28;20005;-68
2022/07/09 07:54:57;;;;;;;;;;;;;;;19.72;100.00;90861.19;5030829;28;19932;-69
2022/07/09 07:57:23;;;;;;;;;;;;;;;19.57;100.00;90864.88;5031155;28;19913;-68
2022/07/09 07:59:48;;;;;;;;;;;;;;;19.34;100.00;90862.19;5031146;28;20378;-69
2022/07/09 08:02:14;;;;;;;;;;;;;;;19.29;100.00;90860.59;5031066;28;19917;-67
2022/07/09 08:04:40;;;;;;;;;;;;;;;18.98;100.00;90860.88;5031013;28;19927;-69
2022/07/09 08:07:05;;;;;;;;;;;;;;;18.99;100.00;90862.44;5046240;28;20011;-71
2022/07/09 08:09:32;;;;;;;;;;;;;;;19.92;100.00;90854.53;5030847;28;19967;-70
2022/07/09 08:11:58;;;;;;;;;;;;;;;20.24;100.00;90852.22;5030878;28;19913;-71
2022/07/09 08:14:23;;;;;;;;;;;;;;;20.23;100.00;90850.66;5030694;28;19971;-71
2022/07/09 08:16:48;;;;;;;;;;;;;;;20.21;100.00;90854.88;5031158;28;19923;-70
2022/07/09 08:19:15;;;;;;;;;;;;;;;20.01;100.00;90860.41;5030918;28;20302;-71
2022/07/09 08:21:41;;;;;;;;;;;;;;;19.70;100.00;90852.69;5033041;28;19917;-79
2022/07/09 08:24:06;;;;;;;;;;;;;;;20.54;100.00;90852.16;5034497;28;19913;-74
2022/07/09 08:26:32;;;;;;;;;;;;;;;21.06;100.00;90854.94;5033897;28;20302;-72
2022/07/09 08:28:57;;;;;;;;;;;;;;;20.97;100.00;90852.53;5034329;28;20003;-74
2022/07/09 08:31:23;;;;;;;;;;;;;;;21.16;100.00;90852.34;5016617;28;19936;-73
2022/07/09 08:33:48;;;;;;;;;;;;;;;21.17;100.00;90853.09;5034240;28;19913;-74
2022/07/09 08:36:14;;;;;;;;;;;;;;;21.17;100.00;90848.47;5034378;28;19966;-74
2022/07/09 08:38:39;;;;;;;;;;;;;;;20.79;100.00;90857.03;5034387;28;19916;-73
2022/07/09 08:41:05;;;;;;;;;;;;;;;20.22;100.00;90857.19;5033794;28;20401;-74
2022/07/09 08:43:35;;;;;;;;;;;;;;;19.64;100.00;90859.56;5034132;28;19917;-73
2022/07/09 08:46:01;;;;;;;;;;;;;;;19.64;100.00;90864.94;5034184;28;19924;-74
2022/07/09 08:48:26;;;;;;;;;;;;;;;19.84;100.00;90860.97;5034288;28;19912;-74
2022/07/09 08:50:51;;;;;;;;;;;;;;;19.81;100.00;90859.00;5034027;28;20390;-72
2022/07/09 08:53:17;;;;;;;;;;;;;;;19.85;100.00;90857.13;5033849;28;19917;-72
2022/07/09 08:55:43;;;;;;;;;;;;;;;20.11;100.00;90850.13;5033560;28;19967;-73
2022/07/09 08:58:11;;;;;;;;;;;;;;;20.76;100.00;90849.66;5033983;28;20451;-73
2022/07/09 09:00:36;;;;;;;;;;;;;;;22.03;100.00;90852.50;5033859;28;20386;-72
2022/07/09 09:03:02;;;;;;;;;;;;;;;21.79;100.00;90853.16;5033986;28;19912;-73
2022/07/09 09:05:27;;;;;;;;;;;;;;;21.65;100.00;90853.84;5033805;28;19913;-73
2022/07/09 09:07:52;;;;;;;;;;;;;;;21.65;100.00;90858.50;5033668;28;19971;-73
2022/07/09 09:10:22;;;;;;;;;;;;;;;21.01;100.00;90871.53;5033320;28;19913;-70
2022/07/09 09:12:47;;;;;;;;;;;;;;;20.63;100.00;90859.97;5033506;28;19956;-73
2022/07/09 09:15:16;;;;;;;;;;;;;;;20.53;100.00;90866.84;5033429;28;19960;-70
2022/07/09 09:17:43;;;;;;;;;;;;;;;20.86;100.00;90862.50;5033580;28;20406;-75
2022/07/09 09:20:14;;;;;;;;;;;;;;;20.86;100.00;90867.91;5033439;28;19992;-73
2022/07/09 09:22:47;;;;;;;;;;;;;;;20.82;100.00;90861.69;5033420;28;20453;-68
2022/07/09 09:25:17;;;;;;;;;;;;;;;21.36;100.00;90866.41;5033163;28;19920;-68
2022/07/09 09:27:49;;;;;;;;;;;;;;;23.14;89.14;90869.13;5033261;28;20513;-68
2022/07/09 09:30:15;;;;;;;;;;;;;;;24.74;74.58;90868.81;5033194;28;19913;-70
2022/07/09 09:32:40;;;;;;;;;;;;;;;24.81;73.97;90863.34;5032122;28;19916;-69
2022/07/09 09:35:06;;;;;;;;;;;;;;;24.64;71.80;90875.88;5033127;28;19967;-69
2022/07/09 09:37:31;;;;;;;;;;;;;;;23.98;72.36;90867.50;5033185;28;19913;-68
2022/07/09 09:39:57;;;;;;;;;;;;;;;22.97;78.61;90859.78;5032864;28;19913;-68
2022/07/09 09:42:27;;;;;;;;;;;;;;;22.20;87.17;90866.53;5032941;28;20409;-67
2022/07/09 09:44:57;;;;;;;;;;;;;;;21.63;96.48;90860.81;5032844;28;19920;-68
2022/07/09 09:47:23;;;;;;;;;;;;;;;20.82;100.00;90851.63;5032721;28;20291;-67
2022/07/09 09:49:49;;;;;;;;;;;;;;;19.75;100.00;90871.28;5032848;28;19920;-71
2022/07/09 09:52:14;;;;;;;;;;;;;;;19.91;100.00;90869.19;5032715;28;20382;-69
2022/07/09 09:54:42;;;;;;;;;;;;;;;20.08;100.00;90867.06;5032469;28;19952;-68
2022/07/09 09:57:13;;;;;;;;;;;;;;;20.01;100.00;90865.81;5032642;28;19912;-68
2022/07/09 09:59:39;;;;;;;;;;;;;;;19.41;100.00;90856.91;5032605;28;20303;-68
2022/07/09 10:02:11;;;;;;;;;;;;;;;19.05;100.00;90861.75;5032958;28;19917;-70
2022/07/09 10:04:43;;;;;;;;;;;;;;;18.96;100.00;90863.94;5032586;28;19913;-70
2022/07/09 10:07:10;;;;;;;;;;;;;;;18.72;100.00;90865.06;5032442;28;19913;-70
2022/07/09 10:09:35;;;;;;;;;;;;;;;18.59;100.00;90860.19;5032183;28;19913;-70
2022/07/09 10:12:01;;;;;;;;;;;;;;;18.61;100.00;90860.59;5032509;28;20007;-71
2022/07/09 10:14:26;;;;;;;;;;;;;;;18.61;100.00;90855.97;5032216;28;19924;-71
2022/07/09 10:16:52;;;;;;;;;;;;;;;18.45;100.00;90855.31;5032462;28;19920;-69
2022/07/09 10:19:24;;;;;;;;;;;;;;;18.47;100.00;90848.47;5032360;28;19956;-70
2022/07/09 10:21:51;;;;;;;;;;;;;;;18.83;100.00;90855.25;5032313;28;19924;-70
2022/07/09 10:24:23;;;;;;;;;;;;;;;19.27;100.00;90852.09;5031820;28;19920;-69
2022/07/09 10:26:48;;;;;;;;;;;;;;;19.56;100.00;90845.19;5032232;28;19913;-69
2022/07/09 10:29:22;;;;;;;;;;;;;;;21.65;100.00;90843.03;5032084;28;20521;-71
2022/07/09 10:31:48;;;;;;;;;;;;;;;21.81;98.89;90848.13;5032133;28;19913;-71
2022/07/09 10:34:30;;;;;;;;;;;;;;;21.37;100.00;90840.13;5031963;28;20505;-70
2022/07/09 10:36:57;;;;;;;;;;;;;;;21.59;96.57;90841.03;5032095;28;20003;-74
2022/07/09 10:39:22;;;;;;;;;;;;;;;21.37;97.34;90848.25;5031613;28;19935;-70
2022/07/09 10:41:57;;;;;;;;;;;;;;;20.82;100.00;90845.47;5031995;28;20379;-69
2022/07/09 10:44:26;;;;;;;;;;;;;;;19.58;100.00;90845.63;5034647;28;19913;-68
2022/07/09 10:46:58;;;;;;;;;;;;;;;19.27;100.00;90844.00;5031934;28;20302;-72
2022/07/09 10:49:24;;;;;;;;;;;;;;;19.31;100.00;90842.13;5033236;28;19913;-67
2022/07/09 10:51:54;;;;;;;;;;;;;;;19.69;100.00;90843.03;5031884;28;19913;-69
2022/07/09 10:54:19;;;;;;;;;;;;;;;20.60;100.00;90841.78;5031232;28;19939;-68
2022/07/09 10:56:45;;;;;;;;;;;;;;;21.59;100.00;90833.69;5031785;28;20375;-69
2022/07/09 10:59:15;;;;;;;;;;;;;;;23.51;82.11;90838.84;5031591;28;19924;-69
2022/07/09 11:01:40;;;;;;;;;;;;;;;23.36;83.07;90831.91;5031577;28;19917;-70
2022/07/09 11:04:06;;;;;;;;;;;;;;;23.04;81.11;90821.84;5031500;28;19936;-70
2022/07/09 11:06:31;;;;;;;;;;;;;;;22.09;89.26;90823.13;5013791;28;19919;-75
2022/07/09 11:08:56;;;;;;;;;;;;;;;22.99;84.82;90831.09;5046609;28;19913;-71
2022/07/09 11:11:22;;;;;;;;;;;;;;;23.24;78.99;90841.22;5031619;28;19913;-74
2022/07/09 11:13:51;;;;;;;;;;;;;;;22.05;85.12;90833.94;5030991;28;19917;-72
2022/07/09 11:16:21;;;;;;;;;;;;;;;22.41;84.74;90824.03;5031564;28;19977;-74
2022/07/09 11:18:46;;;;;;;;;;;;;;;22.12;92.21;90833.22;5031783;28;19962;-73
2022/07/09 11:21:12;;;;;;;;;;;;;;;21.82;91.46;90826.09;5031650;28;20351;-77
2022/07/09 11:23:37;;;;;;;;;;;;;;;22.04;90.87;90815.34;5031248;28;20387;-77
2022/07/09 11:26:02;;;;;;;;;;;;;;;22.80;84.67;90822.53;5031476;28;19948;-75
2022/07/09 11:28:28;;;;;;;;;;;;;;;23.91;77.48;90834.94;5031342;28;20007;-76
2022/07/09 11:31:04;;;;;;;;;;;;;;;24.18;72.86;90838.72;5031417;28;19916;-81
2022/07/09 11:34:10;;;;;;;;;;;;;;;23.16;75.10;90835.00;5031549;28;19924;-79
2022/07/09 11:36:15;;;;;;;;;;;;;;;22.41;83.33;90832.16;5031189;28;20391;-75
2022/07/09 11:38:50;;;;;;;;;;;;;;;22.06;88.01;90830.09;5031524;28;20034;-72
2022/07/09 11:41:16;;;;;;;;;;;;;;;21.74;87.12;90823.72;5031413;28;20011;-71
2022/07/09 11:43:48;;;;;;;;;;;;;;;20.70;97.96;90837.66;5031314;28;19994;-70
2022/07/09 11:46:18;;;;;;;;;;;;;;;20.40;100.00;90841.19;5031394;28;19983;-70
2022/07/09 11:48:52;;;;;;;;;;;;;;;20.37;100.00;90844.63;5031231;28;19920;-70
2022/07/09 11:51:28;;;;;;;;;;;;;;;20.72;100.00;90835.34;5031562;28;19913;-71
2022/07/09 11:53:53;;;;;;;;;;;;;;;21.20;95.62;90828.78;5031098;28;20394;-71
2022/07/09 11:56:19;;;;;;;;;;;;;;;20.91;97.63;90838.59;5015231;28;19916;-70
2022/07/09 11:58:50;;;;;;;;;;;;;;;20.45;100.00;90830.06;5035193;28;19913;-70
2022/07/09 12:01:16;;;;;;;;;;;;;;;20.26;100.00;90831.00;5035202;28;20321;-70
2022/07/09 12:03:46;;;;;;;;;;;;;;;20.33;100.00;90830.28;5035073;28;19920;-72
2022/07/09 12:06:14;;;;;;;;;;;;;;;20.04;100.00;90826.50;5035130;28;19913;-72
2022/07/09 12:08:39;;;;;;;;;;;;;;;19.80;100.00;90819.66;5035012;28;20326;-72
2022/07/09 12:11:04;;;;;;;;;;;;;;;20.11;100.00;90817.72;5034977;28;19913;-70
2022/07/09 12:13:29;;;;;;;;;;;;;;;20.19;100.00;90816.63;5034715;28;19944;-70
2022/07/09 12:15:55;;;;;;;;;;;;;;;20.70;100.00;90814.09;5017114;28;20409;-70
2022/07/09 12:18:20;;;;;;;;;;;;;;;21.18;95.96;90812.16;5034860;28;19917;-71
2022/07/09 12:20:45;;;;;;;;;;;;;;;20.86;99.82;90816.53;5034688;28;20414;-71
2022/07/09 12:23:11;;;;;;;;;;;;;;;20.48;100.00;90810.41;5034418;28;19966;-70
2022/07/09 12:25:36;;;;;;;;;;;;;;;21.12;100.00;90808.22;5034517;28;19913;-70
2022/07/09 12:28:01;;;;;;;;;;;;;;;21.04;99.15;90819.38;5034371;28;19970;-70
2022/07/09 12:30:29;;;;;;;;;;;;;;;20.03;100.00;90823.00;5034617;28;20322;-70
2022/07/09 12:32:58;;;;;;;;;;;;;;;20.44;100.00;90823.09;5034497;28;20025;-70